Time;durP1;ratioP1;P1;durP2;ratioP2;P2;SDS_P1;SDS_P2;PMS_P1;PMS_P2;Temp;Humidity;BMP_temperature;BMP_pressure;BME280_temperature;BME280_humidity;BME280_pressure;Samples;Min_cycle;Max_cycle;Signal;HPM_P1;HPM_P2
2023/05/23 00:01:21;;;;;;;8.32;4.32;;;11.10;99.90;;;;;;5003249;28;20034;-76
2023/05/23 00:03:48;;;;;;;9.77;5.22;;;11.10;99.90;;;;;;4986300;28;20029;-76
2023/05/23 00:06:13;;;;;;;11.10;5.20;;;11.10;99.90;;;;;;5034880;28;20111;-75
2023/05/23 00:08:39;;;;;;;8.27;5.03;;;11.10;99.90;;;;;;5023638;28;20032;-76
2023/05/23 00:11:05;;;;;;;9.35;4.57;;;11.10;99.90;;;;;;5008938;28;20034;-75
2023/05/23 00:13:33;;;;;;;9.18;5.40;;;11.10;99.90;;;;;;5004156;28;20488;-76
2023/05/23 00:15:59;;;;;;;11.25;4.82;;;11.10;99.90;;;;;;5002180;28;20446;-76
2023/05/23 00:18:24;;;;;;;10.18;4.95;;;11.00;99.90;;;;;;5004385;28;20120;-76
2023/05/23 00:20:50;;;;;;;11.70;4.63;;;11.10;99.90;;;;;;5030075;28;20054;-77
2023/05/23 00:23:20;;;;;;;8.30;4.78;;;11.00;99.90;;;;;;5024048;28;20058;-76
2023/05/23 00:25:51;;;;;;;9.82;4.88;;;11.10;99.90;;;;;;5030933;28;20091;-76
2023/05/23 00:28:17;;;;;;;10.85;5.22;;;11.10;99.90;;;;;;5004051;28;20530;-75
2023/05/23 00:30:43;;;;;;;10.45;5.65;;;11.10;99.90;;;;;;5021688;28;20037;-75
2023/05/23 00:33:08;;;;;;;10.10;5.10;;;11.00;99.90;;;;;;5020898;28;20040;-75
2023/05/23 00:35:34;;;;;;;8.57;4.93;;;11.00;99.90;;;;;;5036608;28;20056;-76
2023/05/23 00:38:01;;;;;;;11.18;4.85;;;11.00;99.90;;;;;;5022259;28;20034;-76
2023/05/23 00:40:26;;;;;;;13.80;4.85;;;11.00;99.90;;;;;;5035881;28;20105;-76
2023/05/23 00:42:52;;;;;;;9.18;4.40;;;11.00;99.90;;;;;;5022978;28;20377;-75
2023/05/23 00:45:18;;;;;;;9.93;4.93;;;10.90;99.90;;;;;;5003332;28;20116;-77
2023/05/23 00:47:45;;;;;;;8.65;4.97;;;10.80;99.90;;;;;;5002958;28;20034;-76
2023/05/23 00:50:15;;;;;;;10.00;4.82;;;10.90;99.90;;;;;;4996631;28;20028;-76
2023/05/23 00:52:43;;;;;;;9.90;4.63;;;10.90;99.90;;;;;;5015841;28;20492;-76
2023/05/23 00:55:09;;;;;;;11.93;5.00;;;10.90;99.90;;;;;;5041215;28;20052;-76
2023/05/23 00:57:39;;;;;;;15.00;5.35;;;10.90;99.90;;;;;;5026053;28;20037;-76
2023/05/23 01:00:08;;;;;;;11.80;5.60;;;10.80;99.90;;;;;;5021823;28;20026;-76
2023/05/23 01:02:45;;;;;;;10.32;5.13;;;10.80;99.90;;;;;;5037789;28;20041;-77
2023/05/23 01:05:16;;;;;;;12.25;5.43;;;10.80;99.90;;;;;;5039996;28;20174;-76
2023/05/23 01:07:51;;;;;;;9.05;5.45;;;10.80;99.90;;;;;;5004120;28;20121;-75
2023/05/23 01:10:26;;;;;;;10.38;5.82;;;10.70;99.90;;;;;;5018832;28;20044;-76
2023/05/23 01:13:13;;;;;;;8.35;5.25;;;10.70;99.90;;;;;;5003525;28;20026;-76
2023/05/23 01:16:08;;;;;;;8.75;4.70;;;10.60;99.90;;;;;;5003540;28;20397;-75
2023/05/23 01:18:53;;;;;;;11.00;5.55;;;10.60;99.90;;;;;;5019765;28;20185;-76
2023/05/23 01:21:22;;;;;;;9.88;5.07;;;10.60;99.90;;;;;;4983907;28;20652;-76
2023/05/23 01:23:51;;;;;;;11.68;5.45;;;10.50;99.90;;;;;;5019081;28;20022;-76
2023/05/23 01:27:14;;;;;;;10.05;4.95;;;10.50;99.90;;;;;;5029797;28;20040;-76
2023/05/23 01:29:46;;;;;;;9.30;4.95;;;10.50;99.90;;;;;;4962176;28;20054;-76
2023/05/23 01:32:12;;;;;;;8.02;5.10;;;10.50;99.90;;;;;;4959815;28;20112;-75
2023/05/23 01:34:40;;;;;;;12.90;5.70;;;10.40;99.90;;;;;;4979826;28;20054;-75
2023/05/23 01:37:10;;;;;;;9.07;5.32;;;10.40;99.90;;;;;;5002554;28;20476;-75
2023/05/23 01:39:36;;;;;;;12.43;5.10;;;10.40;99.90;;;;;;5020489;28;20029;-75
2023/05/23 01:42:03;;;;;;;12.50;5.43;;;10.40;99.90;;;;;;5001777;28;20033;-76
2023/05/23 01:44:29;;;;;;;11.73;5.50;;;10.30;99.90;;;;;;4982900;28;20097;-77
2023/05/23 01:46:56;;;;;;;9.52;5.88;;;10.30;99.90;;;;;;4982854;28;20033;-76
2023/05/23 01:49:22;;;;;;;10.45;5.55;;;10.20;99.90;;;;;;5005482;28;20457;-76
2023/05/23 01:51:49;;;;;;;12.05;4.97;;;10.10;99.90;;;;;;5001711;28;20029;-75
2023/05/23 01:54:15;;;;;;;9.82;4.97;;;10.10;99.90;;;;;;5019953;28;20081;-75
2023/05/23 01:56:42;;;;;;;12.32;6.00;;;10.10;99.90;;;;;;5001775;28;20102;-76
2023/05/23 01:59:08;;;;;;;10.38;5.72;;;9.90;99.90;;;;;;4997912;28;20030;-76
2023/05/23 02:01:34;;;;;;;11.90;5.90;;;9.90;99.90;;;;;;4997669;28;20029;-75
2023/05/23 02:04:00;;;;;;;9.82;5.10;;;9.90;99.90;;;;;;5021284;28;20044;-76
2023/05/23 02:06:25;;;;;;;11.85;5.47;;;9.90;99.90;;;;;;5020228;28;20037;-75
2023/05/23 02:08:51;;;;;;;11.60;5.55;;;9.90;99.90;;;;;;5002777;28;20038;-75
2023/05/23 02:11:17;;;;;;;10.68;5.43;;;9.90;99.90;;;;;;5020011;28;20021;-75
2023/05/23 02:13:42;;;;;;;8.43;4.85;;;9.90;99.90;;;;;;5002933;28;20033;-76
2023/05/23 02:16:08;;;;;;;9.85;5.43;;;9.80;99.90;;;;;;4997373;28;20033;-76
2023/05/23 02:18:36;;;;;;;14.02;5.43;;;9.80;99.90;;;;;;5022466;28;20472;-75
2023/05/23 02:21:03;;;;;;;11.40;5.90;;;9.80;99.90;;;;;;5022077;28;20079;-75
2023/05/23 02:23:29;;;;;;;10.38;4.85;;;9.70;99.90;;;;;;5022633;28;20061;-76
2023/05/23 02:25:55;;;;;;;9.18;5.40;;;9.70;99.90;;;;;;5001871;28;20122;-76
2023/05/23 02:28:21;;;;;;;12.38;5.32;;;9.70;99.90;;;;;;5034816;28;20028;-76
2023/05/23 02:30:46;;;;;;;9.10;5.00;;;9.60;99.90;;;;;;5008767;28;20053;-75
2023/05/23 02:33:12;;;;;;;9.40;4.93;;;9.50;99.90;;;;;;5018382;28;20052;-76
2023/05/23 02:35:38;;;;;;;13.20;5.53;;;9.50;99.90;;;;;;5001393;28;20052;-75
2023/05/23 02:38:03;;;;;;;10.98;5.40;;;9.50;99.90;;;;;;5019419;28;20104;-76
2023/05/23 02:40:29;;;;;;;8.60;5.25;;;9.50;99.90;;;;;;5019795;28;20113;-75
2023/05/23 02:42:56;;;;;;;11.15;5.82;;;9.50;99.90;;;;;;5033286;28;20231;-77
2023/05/23 02:45:22;;;;;;;9.82;5.45;;;9.40;99.90;;;;;;5018582;28;20048;-75
2023/05/23 02:47:48;;;;;;;9.35;4.88;;;9.50;99.90;;;;;;5033092;28;20496;-76
2023/05/23 02:50:13;;;;;;;12.55;5.45;;;9.40;99.90;;;;;;5001574;28;20033;-75
2023/05/23 02:52:41;;;;;;;12.65;5.95;;;9.30;99.90;;;;;;5019585;28;20034;-74
2023/05/23 02:55:07;;;;;;;10.27;5.28;;;9.30;99.90;;;;;;5001358;28;20505;-74
2023/05/23 02:57:33;;;;;;;11.77;5.80;;;9.30;99.90;;;;;;5000142;28;20581;-75
2023/05/23 02:59:58;;;;;;;10.82;5.07;;;9.20;99.90;;;;;;5019486;28;20054;-75
2023/05/23 03:02:24;;;;;;;13.57;5.63;;;9.20;99.90;;;;;;5023348;28;20021;-74
2023/05/23 03:04:50;;;;;;;9.20;4.82;;;9.10;99.90;;;;;;5032174;28;20107;-75
2023/05/23 03:07:16;;;;;;;11.80;5.55;;;9.00;99.90;;;;;;5029562;28;20472;-75
2023/05/23 03:09:41;;;;;;;10.35;5.60;;;9.00;99.90;;;;;;5015541;28;20030;-76
2023/05/23 03:12:07;;;;;;;11.05;5.47;;;9.00;99.90;;;;;;5002765;28;20038;-75
2023/05/23 03:14:33;;;;;;;9.43;6.00;;;8.90;99.90;;;;;;4991155;28;20081;-76
2023/05/23 03:16:59;;;;;;;14.60;6.35;;;8.90;99.90;;;;;;5024769;28;20587;-76
2023/05/23 03:19:24;;;;;;;11.63;5.68;;;8.90;99.90;;;;;;5009721;28;20041;-75
2023/05/23 03:21:51;;;;;;;12.98;5.75;;;8.90;99.90;;;;;;5004751;28;20066;-75
2023/05/23 03:24:17;;;;;;;12.77;6.68;;;8.90;99.90;;;;;;5022001;28;20029;-76
2023/05/23 03:26:42;;;;;;;10.25;5.95;;;8.90;99.90;;;;;;5024751;28;20040;-75
2023/05/23 03:29:09;;;;;;;13.55;5.53;;;8.80;99.90;;;;;;5024489;28;20818;-75
2023/05/23 03:31:36;;;;;;;15.98;5.97;;;8.80;99.90;;;;;;5011588;28;20451;-76
2023/05/23 03:34:04;;;;;;;11.63;6.43;;;8.80;99.90;;;;;;5013976;28;20638;-75
2023/05/23 03:36:32;;;;;;;17.23;6.47;;;8.80;99.90;;;;;;5042360;28;20101;-76
2023/05/23 03:38:57;;;;;;;13.73;6.13;;;8.80;99.90;;;;;;5020726;28;20032;-75
2023/05/23 03:41:23;;;;;;;13.27;6.70;;;8.80;99.90;;;;;;4997291;28;20507;-75
2023/05/23 03:43:49;;;;;;;13.13;6.75;;;8.80;99.90;;;;;;5004609;28;20036;-76
2023/05/23 03:46:15;;;;;;;16.25;7.22;;;8.80;99.90;;;;;;5003371;28;20557;-76
2023/05/23 03:48:40;;;;;;;12.82;5.88;;;8.80;99.90;;;;;;5004927;28;20021;-75
2023/05/23 03:51:06;;;;;;;10.82;6.18;;;8.80;99.90;;;;;;5035439;28;20037;-76
2023/05/23 03:53:31;;;;;;;11.00;6.35;;;8.90;99.90;;;;;;5021832;28;20484;-76
2023/05/23 03:55:57;;;;;;;12.05;6.30;;;8.80;99.90;;;;;;5020447;28;20033;-76
2023/05/23 03:58:23;;;;;;;12.18;6.32;;;8.80;99.90;;;;;;5036640;28;20033;-76
2023/05/23 04:00:48;;;;;;;11.18;5.78;;;8.90;99.90;;;;;;5020425;28;20502;-75
2023/05/23 04:03:16;;;;;;;15.27;6.50;;;8.80;99.90;;;;;;5003167;28;20041;-75
2023/05/23 04:05:42;;;;;;;15.18;6.82;;;8.80;99.90;;;;;;5032321;28;20120;-76
2023/05/23 04:08:08;;;;;;;15.65;6.90;;;8.80;99.90;;;;;;5023815;28;20033;-76
2023/05/23 04:10:34;;;;;;;13.75;6.32;;;8.70;99.90;;;;;;5022746;28;20054;-76
2023/05/23 04:12:59;;;;;;;13.25;5.80;;;8.80;99.90;;;;;;5018863;28;20123;-74
2023/05/23 04:15:26;;;;;;;14.50;6.55;;;8.80;99.90;;;;;;5013723;28;20112;-75
2023/05/23 04:17:52;;;;;;;13.35;6.90;;;8.80;99.90;;;;;;5003338;28;20025;-76
2023/05/23 04:20:18;;;;;;;11.45;6.55;;;8.80;99.90;;;;;;5003169;28;20025;-75
2023/05/23 04:22:44;;;;;;;13.25;6.22;;;8.80;99.90;;;;;;5039936;28;20455;-76
2023/05/23 04:25:09;;;;;;;11.52;6.40;;;8.80;99.90;;;;;;5032057;28;20044;-75
2023/05/23 04:27:38;;;;;;;12.63;6.47;;;8.80;99.90;;;;;;5010494;28;20144;-76
2023/05/23 04:30:06;;;;;;;10.13;5.88;;;8.80;99.90;;;;;;5006018;28;20204;-76
2023/05/23 04:32:31;;;;;;;11.48;6.03;;;8.80;99.90;;;;;;5022108;28;20036;-75
2023/05/23 04:34:57;;;;;;;10.95;6.28;;;8.80;99.90;;;;;;5023222;28;20459;-75
2023/05/23 04:37:24;;;;;;;12.65;6.32;;;8.90;99.90;;;;;;5033169;28;20034;-75
2023/05/23 04:39:51;;;;;;;9.70;5.32;;;8.80;99.90;;;;;;5021849;28;20045;-75
2023/05/23 04:42:17;;;;;;;10.60;6.05;;;8.80;99.90;;;;;;5019936;28;20032;-75
2023/05/23 04:44:42;;;;;;;12.00;6.20;;;8.90;99.90;;;;;;5031089;28;20053;-75
2023/05/23 04:47:08;;;;;;;10.50;5.90;;;8.90;99.90;;;;;;5018479;28;20076;-74
2023/05/23 04:49:36;;;;;;;10.23;5.95;;;9.00;99.90;;;;;;5020701;28;20160;-75
2023/05/23 04:52:01;;;;;;;12.20;6.30;;;9.00;99.90;;;;;;5019937;28;20033;-75
2023/05/23 04:54:27;;;;;;;12.77;6.45;;;9.10;99.90;;;;;;5032795;28;20041;-76
2023/05/23 04:56:53;;;;;;;11.35;5.50;;;9.20;99.90;;;;;;5026461;28;20029;-75
2023/05/23 04:59:18;;;;;;;10.38;6.32;;;9.20;99.90;;;;;;5022535;28;20210;-75
2023/05/23 05:01:44;;;;;;;8.57;5.68;;;9.30;99.90;;;;;;5022393;28;20040;-75
2023/05/23 05:04:09;;;;;;;15.90;6.07;;;9.30;99.90;;;;;;5015641;28;20038;-75
2023/05/23 05:06:35;;;;;;;10.90;6.15;;;9.40;99.90;;;;;;5048455;22;20059;-71
2023/05/23 05:09:01;;;;;;;11.35;5.95;;;9.40;99.90;;;;;;5038555;28;20047;-70
2023/05/23 05:11:27;;;;;;;13.05;6.18;;;9.50;99.90;;;;;;5034160;28;20352;-71
2023/05/23 05:13:53;;;;;;;10.95;6.15;;;9.50;99.90;;;;;;5054864;28;20047;-71
2023/05/23 05:16:18;;;;;;;8.93;5.35;;;9.60;99.90;;;;;;5074638;28;20024;-71
2023/05/23 05:18:44;;;;;;;13.07;6.40;;;9.60;99.90;;;;;;5051709;28;20036;-71
2023/05/23 05:21:09;;;;;;;12.82;6.10;;;9.70;99.90;;;;;;5051086;28;20056;-71
2023/05/23 05:23:35;;;;;;;10.75;6.35;;;9.80;99.90;;;;;;5035377;28;20388;-70
2023/05/23 05:26:02;;;;;;;9.60;6.55;;;9.90;99.90;;;;;;5043579;28;20511;-73
2023/05/23 05:28:27;;;;;;;10.77;5.65;;;10.00;99.90;;;;;;5049489;28;20087;-70
2023/05/23 05:30:53;;;;;;;14.40;5.95;;;10.10;99.90;;;;;;5048932;28;20032;-71
2023/05/23 05:33:22;;;;;;;11.05;5.32;;;10.20;99.90;;;;;;5041304;28;20036;-71
2023/05/23 05:35:50;;;;;;;11.35;5.93;;;10.40;99.90;;;;;;5054683;28;20041;-71
2023/05/23 05:38:16;;;;;;;9.80;5.20;;;10.50;99.90;;;;;;5054992;28;20031;-71
2023/05/23 05:40:41;;;;;;;10.18;5.85;;;10.50;99.90;;;;;;5038636;28;20029;-71
2023/05/23 05:43:07;;;;;;;10.07;4.95;;;10.60;99.90;;;;;;5051727;28;20051;-71
2023/05/23 05:45:32;;;;;;;8.02;4.50;;;10.70;99.90;;;;;;5038507;28;20029;-71
2023/05/23 05:47:58;;;;;;;10.18;5.35;;;10.80;99.90;;;;;;5048997;28;20039;-71
2023/05/23 05:50:24;;;;;;;7.93;4.80;;;10.90;99.90;;;;;;5054423;28;20374;-71
2023/05/23 05:52:49;;;;;;;9.15;4.47;;;11.00;99.90;;;;;;5049763;28;20119;-71
2023/05/23 05:55:15;;;;;;;11.57;4.30;;;11.00;99.90;;;;;;5052873;28;20045;-71
2023/05/23 05:57:41;;;;;;;11.73;4.45;;;11.10;99.90;;;;;;5047094;28;20107;-71
2023/05/23 06:00:13;;;;;;;9.18;4.40;;;11.20;99.90;;;;;;5043330;28;20532;-71
2023/05/23 06:02:41;;;;;;;12.77;4.45;;;11.30;99.90;;;;;;5054175;28;20027;-71
2023/05/23 06:05:11;;;;;;;8.77;3.83;;;11.40;99.90;;;;;;5055463;28;20422;-71
2023/05/23 06:07:39;;;;;;;91.32;42.47;;;11.50;99.90;;;;;;5051137;28;20113;-71
2023/05/23 06:10:06;;;;;;;15.02;5.78;;;11.50;99.90;;;;;;5046662;28;20028;-71
2023/05/23 06:12:35;;;;;;;9.43;4.57;;;11.60;99.90;;;;;;5047474;28;20062;-71
2023/05/23 06:15:01;;;;;;;10.30;3.75;;;11.70;99.90;;;;;;5047886;28;20057;-71
2023/05/23 06:17:27;;;;;;;14.32;3.20;;;11.80;99.90;;;;;;5036145;28;20574;-71
2023/05/23 06:19:52;;;;;;;7.07;2.95;;;11.90;99.90;;;;;;5033600;28;20132;-71
2023/05/23 06:22:18;;;;;;;9.35;3.20;;;11.90;99.90;;;;;;5036747;28;20025;-71
2023/05/23 06:24:44;;;;;;;16.17;7.82;;;11.90;99.90;;;;;;5034229;28;20061;-71
2023/05/23 06:27:09;;;;;;;9.90;3.83;;;11.90;99.90;;;;;;5029980;28;20044;-71
2023/05/23 06:29:35;;;;;;;6.22;2.65;;;12.00;99.90;;;;;;5049646;28;20033;-71
2023/05/23 06:32:01;;;;;;;4.38;2.95;;;12.10;99.90;;;;;;5053911;28;20474;-72
2023/05/23 06:34:27;;;;;;;8.07;2.50;;;12.20;99.90;;;;;;5075074;28;20130;-72
2023/05/23 06:36:54;;;;;;;9.80;2.90;;;12.30;99.90;;;;;;5070465;28;20123;-72
2023/05/23 06:39:19;;;;;;;7.50;2.92;;;12.30;99.90;;;;;;5060257;28;20090;-72
2023/05/23 06:41:46;;;;;;;6.53;3.67;;;12.40;99.90;;;;;;5037611;28;20127;-72
2023/05/23 06:44:12;;;;;;;9.77;3.10;;;12.40;99.90;;;;;;5045965;28;20096;-72
2023/05/23 06:46:37;;;;;;;9.45;2.67;;;12.40;99.90;;;;;;5040524;28;20096;-72
2023/05/23 06:49:03;;;;;;;5.57;2.28;;;12.50;99.90;;;;;;5039539;28;20070;-72
2023/05/23 06:51:28;;;;;;;6.32;2.35;;;12.60;99.90;;;;;;5050516;28;20707;-72
2023/05/23 06:53:55;;;;;;;6.13;2.30;;;12.80;99.90;;;;;;5022359;28;20036;-72
2023/05/23 06:56:22;;;;;;;6.80;2.28;;;12.80;99.90;;;;;;5027115;28;20035;-72
2023/05/23 06:58:48;;;;;;;5.20;2.08;;;12.90;99.90;;;;;;5057202;28;20020;-72
2023/05/23 07:01:13;;;;;;;5.85;1.85;;;12.90;99.90;;;;;;5020311;28;20037;-72
2023/05/23 07:03:40;;;;;;;7.88;2.17;;;13.10;99.90;;;;;;4692781;28;9999676;-72
2023/05/23 07:06:07;;;;;;;5.15;1.73;;;13.20;99.90;;;;;;5012961;28;20208;-72
2023/05/23 07:08:32;;;;;;;5.50;1.70;;;13.30;99.90;;;;;;5034650;28;20025;-72
2023/05/23 07:10:58;;;;;;;4.97;2.00;;;13.30;99.90;;;;;;5035117;28;20493;-73
2023/05/23 07:13:24;;;;;;;3.78;2.13;;;13.40;99.90;;;;;;5050629;28;20042;-72
2023/05/23 07:15:50;;;;;;;6.70;2.00;;;13.60;99.90;;;;;;5039850;28;20037;-71
2023/05/23 07:18:15;;;;;;;4.75;2.08;;;13.70;99.90;;;;;;5039507;28;20067;-72
2023/05/23 07:20:41;;;;;;;4.47;2.05;;;13.90;99.90;;;;;;5027007;28;20123;-72
2023/05/23 07:23:07;;;;;;;4.55;2.00;;;14.00;99.10;;;;;;5031216;28;20466;-71
2023/05/23 07:25:32;;;;;;;6.07;1.98;;;14.20;98.20;;;;;;5049549;28;20179;-70
2023/05/23 07:27:58;;;;;;;4.72;1.90;;;14.30;98.50;;;;;;5040927;28;20448;-70
2023/05/23 08:21:22;;;;;;;5.07;1.70;;;24.30;39.40;;;;;;5021269;27;20628;-76
2023/05/23 08:23:47;;;;;;;7.88;1.98;;;25.10;36.90;;;;;;5020163;27;20094;-75
2023/05/23 08:26:13;;;;;;;4.15;1.70;;;26.40;36.40;;;;;;5045567;22;20107;-80
2023/05/23 08:28:38;;;;;;;7.15;1.40;;;27.60;35.50;;;;;;5088969;28;20040;-80
2023/05/23 08:31:06;;;;;;;5.22;1.55;;;28.20;32.90;;;;;;5089965;27;20130;-84
2023/05/23 08:33:31;;;;;;;3.25;1.30;;;27.50;35.70;;;;;;5090024;28;20028;-80
2023/05/23 08:35:57;;;;;;;7.22;1.70;;;27.00;37.30;;;;;;5061165;28;20098;-80
2023/05/23 08:38:23;;;;;;;3.80;1.80;;;26.00;37.00;;;;;;5064289;28;20023;-80
2023/05/23 08:40:51;;;;;;;5.82;1.38;;;25.10;39.20;;;;;;5073741;28;20658;-79
2023/05/23 08:43:18;;;;;;;5.28;1.98;;;25.40;38.70;;;;;;5086151;27;20035;-79
2023/05/23 08:45:44;;;;;;;6.75;1.63;;;25.70;35.60;;;;;;5074790;28;20049;-79
2023/05/23 08:48:12;;;;;;;5.32;1.40;;;27.80;35.80;;;;;;5099443;27;20028;-80
2023/05/23 08:50:40;;;;;;;3.33;1.60;;;29.20;35.00;;;;;;5065056;28;20056;-79
2023/05/23 08:53:09;;;;;;;6.57;1.67;;;29.70;31.10;;;;;;5057228;28;20024;-80
2023/05/23 08:55:36;;;;;;;6.75;1.75;;;28.90;30.90;;;;;;5048269;28;20040;-78
2023/05/23 08:58:02;;;;;;;3.30;1.38;;;27.70;32.00;;;;;;5075406;27;20036;-79
2023/05/23 09:00:28;;;;;;;3.85;1.27;;;24.50;32.90;;;;;;5087005;27;20047;-79
2023/05/23 09:02:55;;;;;;;4.30;1.63;;;24.10;37.10;;;;;;5064301;28;20035;-79
2023/05/23 09:05:21;;;;;;;3.63;1.45;;;23.60;39.30;;;;;;5058162;28;20573;-79
2023/05/23 09:07:47;;;;;;;3.70;1.52;;;25.10;36.00;;;;;;5053410;28;20034;-79
2023/05/23 09:10:16;;;;;;;7.43;1.50;;;26.30;37.30;;;;;;5082363;28;20040;-79
2023/05/23 09:12:42;;;;;;;6.50;1.90;;;27.10;33.70;;;;;;5067326;28;20542;-79
2023/05/23 09:15:08;;;;;;;4.43;1.67;;;26.30;32.70;;;;;;4737166;28;10000528;-79
2023/05/23 09:17:35;;;;;;;4.60;1.67;;;25.50;32.10;;;;;;5052757;28;20067;-80
2023/05/23 09:20:01;;;;;;;4.03;1.52;;;25.30;37.50;;;;;;5081800;27;20024;-79
2023/05/23 09:22:27;;;;;;;3.30;1.30;;;25.90;34.30;;;;;;5079548;28;20031;-80
2023/05/23 09:24:54;;;;;;;8.98;1.80;;;27.30;35.10;;;;;;5059478;28;20046;-80
2023/05/23 09:27:20;;;;;;;5.47;1.60;;;27.80;33.80;;;;;;5071718;28;20044;-80
2023/05/23 09:29:46;;;;;;;4.65;1.60;;;28.90;31.50;;;;;;5062377;28;20087;-80
2023/05/23 09:32:14;;;;;;;4.28;1.52;;;28.10;31.20;;;;;;5092590;28;20403;-80
2023/05/23 09:35:03;;;;;;;6.28;1.75;;;29.30;32.60;;;;;;5075670;28;20412;-80
2023/05/23 09:37:31;;;;;;;5.35;1.65;;;28.80;32.30;;;;;;5040908;28;20528;-80
2023/05/23 09:40:05;;;;;;;5.43;1.77;;;28.00;31.60;;;;;;5076192;28;21076;-79
2023/05/23 09:42:32;;;;;;;5.05;1.38;;;27.50;32.50;;;;;;5072428;28;20120;-80
2023/05/23 09:44:59;;;;;;;3.72;1.27;;;27.30;30.80;;;;;;5040425;28;20486;-80
2023/05/23 09:47:25;;;;;;;4.47;1.45;;;25.80;33.00;;;;;;5039173;28;20437;-78
2023/05/23 09:49:50;;;;;;;4.20;1.20;;;26.30;32.80;;;;;;5061620;28;20451;-78
2023/05/23 09:52:18;;;;;;;5.60;1.35;;;27.40;33.30;;;;;;5078637;28;20036;-77
2023/05/23 09:54:45;;;;;;;5.13;1.67;;;26.90;34.00;;;;;;5063349;28;20212;-78
2023/05/23 09:57:12;;;;;;;7.30;1.75;;;27.00;31.20;;;;;;5059615;28;20043;-78
2023/05/23 09:59:40;;;;;;;4.22;1.30;;;27.60;31.70;;;;;;5039410;28;20074;-77
2023/05/23 10:02:15;;;;;;;3.75;1.38;;;27.70;32.40;;;;;;5078782;27;20039;-78
2023/05/23 10:04:42;;;;;;;3.92;1.20;;;27.60;31.50;;;;;;5072981;28;20199;-78
2023/05/23 10:07:19;;;;;;;3.97;1.40;;;29.60;34.30;;;;;;5065258;28;20071;-78
2023/05/23 10:09:52;;;;;;;5.35;1.38;;;29.60;29.20;;;;;;5057542;28;20051;-78
2023/05/23 10:12:54;;;;;;;3.58;1.10;;;30.80;31.10;;;;;;5036935;28;20167;-78
2023/05/23 10:15:22;;;;;;;3.58;1.30;;;31.30;29.50;;;;;;5071795;28;20067;-78
2023/05/23 10:17:55;;;;;;;6.40;1.42;;;30.20;27.60;;;;;;5039085;28;20437;-78
2023/05/23 10:20:24;;;;;;;8.00;1.42;;;28.20;29.80;;;;;;5077628;28;20032;-78
2023/05/23 10:22:51;;;;;;;5.40;1.25;;;27.40;33.00;;;;;;5080224;28;20483;-79
2023/05/23 10:25:17;;;;;;;2.97;1.30;;;26.50;30.30;;;;;;5058161;28;20032;-78
2023/05/23 10:27:43;;;;;;;7.82;1.42;;;24.70;36.20;;;;;;5078602;28;20324;-77
2023/05/23 10:30:10;;;;;;;5.63;1.40;;;23.70;36.70;;;;;;5080358;28;20043;-78
2023/05/23 10:32:38;;;;;;;4.53;1.70;;;23.40;38.60;;;;;;5064946;28;20036;-78
2023/05/23 10:35:07;;;;;;;4.88;1.38;;;22.80;37.20;;;;;;5064683;28;20727;-78
2023/05/23 10:37:41;;;;;;;6.75;1.70;;;22.40;40.80;;;;;;5055586;28;20085;-77
2023/05/23 10:40:36;;;;;;;4.10;1.35;;;21.80;42.50;;;;;;5063092;28;20288;-77
2023/05/23 10:43:09;;;;;;;4.30;1.40;;;20.80;40.60;;;;;;5084924;28;20024;-78
2023/05/23 10:45:42;;;;;;;5.32;1.70;;;20.50;47.00;;;;;;5069052;28;20079;-77
2023/05/23 10:48:40;;;;;;;6.53;1.63;;;20.30;44.90;;;;;;5064334;28;20161;-77
2023/05/23 10:51:10;;;;;;;4.40;1.70;;;20.30;48.50;;;;;;5059508;28;20040;-78
2023/05/23 10:53:41;;;;;;;7.45;1.80;;;20.10;44.70;;;;;;5059688;28;20104;-79
2023/05/23 10:56:18;;;;;;;6.38;1.70;;;20.10;43.90;;;;;;5044138;28;20048;-82
2023/05/23 10:58:43;;;;;;;4.45;1.33;;;20.00;46.50;;;;;;5083606;28;20100;-81
2023/05/23 11:01:14;;;;;;;4.55;1.55;;;20.80;46.20;;;;;;5074081;28;20041;-78
2023/05/23 11:03:45;;;;;;;5.90;1.60;;;21.30;48.10;;;;;;5060782;28;20101;-79
2023/05/23 11:06:39;;;;;;;6.90;1.95;;;20.30;43.90;;;;;;5059018;28;20032;-79
2023/05/23 11:09:09;;;;;;;7.07;1.75;;;20.70;47.60;;;;;;5053385;28;20043;-81
2023/05/23 11:11:56;;;;;;;8.60;1.70;;;20.80;43.90;;;;;;5070941;27;20025;-80
2023/05/23 11:14:31;;;;;;;6.57;1.67;;;20.20;48.70;;;;;;5078309;27;20038;-79
2023/05/23 11:16:57;;;;;;;6.93;1.63;;;20.60;49.70;;;;;;5067607;28;20614;-80
2023/05/23 11:19:28;;;;;;;8.93;1.55;;;20.50;47.60;;;;;;5076752;28;20802;-80
2023/05/23 11:22:01;;;;;;;4.60;1.70;;;21.00;48.00;;;;;;5047678;28;20105;-79
2023/05/23 11:24:47;;;;;;;5.97;1.58;;;21.20;43.50;;;;;;5044749;28;20036;-79
2023/05/23 11:27:13;;;;;;;7.10;1.40;;;21.80;41.80;;;;;;5029817;28;20044;-79
2023/05/23 11:29:39;;;;;;;5.40;1.55;;;22.40;48.00;;;;;;5027013;28;20439;-79
2023/05/23 11:32:12;;;;;;;7.03;1.70;;;22.80;40.90;;;;;;5018724;28;20029;-79
2023/05/23 11:34:38;;;;;;;3.13;1.00;;;23.60;42.00;;;;;;5018955;28;20439;-79
2023/05/23 11:37:04;;;;;;;7.85;1.63;;;24.40;36.90;;;;;;5019604;28;20037;-80
2023/05/23 11:39:30;;;;;;;7.50;1.60;;;25.20;39.00;;;;;;5020722;28;20041;-78
2023/05/23 11:42:02;;;;;;;5.00;1.27;;;25.40;37.90;;;;;;5023674;28;20029;-80
2023/05/23 11:44:29;;;;;;;5.47;1.77;;;25.50;38.50;;;;;;5019675;28;20078;-78
2023/05/23 11:47:13;;;;;;;4.10;1.30;;;24.90;35.20;;;;;;5013863;28;20219;-78
2023/05/23 11:49:39;;;;;;;5.20;1.48;;;25.20;36.60;;;;;;5018379;28;20184;-78
2023/05/23 11:52:06;;;;;;;5.43;1.42;;;25.10;35.90;;;;;;5007752;28;20037;-78
2023/05/23 11:54:32;;;;;;;6.97;1.77;;;24.50;36.40;;;;;;5011109;28;20469;-78
2023/05/23 11:56:58;;;;;;;6.68;1.42;;;24.20;38.50;;;;;;5016613;28;20245;-78
2023/05/23 11:59:25;;;;;;;6.47;1.83;;;23.70;39.00;;;;;;5013261;28;20476;-79
2023/05/23 12:01:52;;;;;;;4.85;1.40;;;24.10;43.10;;;;;;5018995;28;20071;-78
2023/05/23 12:04:18;;;;;;;7.95;1.80;;;24.10;37.10;;;;;;5031851;28;20240;-78
2023/05/23 12:06:47;;;;;;;5.45;1.52;;;24.30;37.30;;;;;;5011830;28;20311;-78
2023/05/23 12:09:13;;;;;;;7.97;1.75;;;23.90;42.80;;;;;;5011377;28;20437;-78
2023/05/23 12:11:41;;;;;;;6.55;1.73;;;24.10;43.50;;;;;;5026541;28;20025;-79
2023/05/23 12:14:08;;;;;;;6.15;1.75;;;24.00;45.00;;;;;;5028170;28;20355;-79
2023/05/23 12:16:35;;;;;;;6.40;1.60;;;23.50;36.50;;;;;;5025506;28;20391;-78
2023/05/23 12:19:02;;;;;;;6.25;1.60;;;23.00;39.60;;;;;;4683026;28;10001194;-79
2023/05/23 12:21:47;;;;;;;8.63;1.90;;;24.00;43.60;;;;;;5029148;28;20831;-78
2023/05/23 12:24:21;;;;;;;8.68;1.75;;;23.30;39.80;;;;;;5019434;28;20126;-79
2023/05/23 12:26:53;;;;;;;8.30;1.67;;;23.90;46.90;;;;;;5023032;28;20044;-77
2023/05/23 12:29:30;;;;;;;6.40;1.83;;;22.90;38.50;;;;;;5019577;28;20036;-81
2023/05/23 12:31:57;;;;;;;10.98;1.58;;;22.70;44.60;;;;;;5016117;28;20181;-78
2023/05/23 12:34:23;;;;;;;6.13;1.60;;;22.60;41.60;;;;;;5024305;28;20045;-78
2023/05/23 12:36:53;;;;;;;8.18;1.95;;;22.90;40.60;;;;;;5044419;28;20026;-78
2023/05/23 12:39:27;;;;;;;8.60;2.08;;;22.10;43.90;;;;;;5029716;28;20037;-77
2023/05/23 12:41:55;;;;;;;8.02;2.45;;;22.80;46.80;;;;;;5032083;28;20702;-78
2023/05/23 12:44:21;;;;;;;6.03;1.58;;;23.40;44.50;;;;;;5029437;28;20078;-76
2023/05/23 12:46:47;;;;;;;4.65;1.70;;;24.30;49.20;;;;;;5032063;28;20488;-78
2023/05/23 12:49:12;;;;;;;6.35;1.70;;;24.40;40.90;;;;;;5031763;28;20116;-79
2023/05/23 12:51:39;;;;;;;8.38;2.17;;;24.50;39.00;;;;;;5034198;28;20147;-80
2023/05/23 12:54:05;;;;;;;6.45;1.92;;;24.70;40.30;;;;;;5030805;28;20564;-78
2023/05/23 12:56:30;;;;;;;5.10;1.73;;;24.30;39.30;;;;;;5024606;28;20069;-79
2023/05/23 12:58:56;;;;;;;6.72;1.95;;;24.10;39.40;;;;;;5053052;28;20041;-78
2023/05/23 13:01:22;;;;;;;9.07;1.92;;;24.50;46.40;;;;;;5035936;28;20078;-77
2023/05/23 13:03:47;;;;;;;5.50;1.67;;;24.80;42.70;;;;;;5019495;28;20040;-78
2023/05/23 13:06:13;;;;;;;6.13;1.80;;;24.70;36.80;;;;;;5037640;28;20035;-77
2023/05/23 13:08:39;;;;;;;6.22;1.80;;;24.30;37.70;;;;;;5039422;28;20460;-77
2023/05/23 13:11:05;;;;;;;8.35;1.95;;;23.80;42.20;;;;;;5049766;28;20488;-80
2023/05/23 13:13:32;;;;;;;6.82;1.80;;;23.50;40.20;;;;;;5018425;28;20512;-78
2023/05/23 13:15:58;;;;;;;6.63;2.15;;;23.50;42.80;;;;;;5032147;28;20033;-77
2023/05/23 13:18:23;;;;;;;7.05;1.63;;;23.60;43.70;;;;;;5039530;28;20021;-77
2023/05/23 13:20:49;;;;;;;6.35;1.80;;;23.60;43.70;;;;;;5055674;28;20208;-77
2023/05/23 13:23:15;;;;;;;7.45;2.05;;;23.00;39.80;;;;;;5038839;28;20247;-78
2023/05/23 13:25:41;;;;;;;7.25;1.83;;;23.30;40.20;;;;;;5035725;28;20076;-78
2023/05/23 13:28:07;;;;;;;4.85;1.77;;;23.60;44.30;;;;;;5061143;28;20067;-78
2023/05/23 13:30:33;;;;;;;7.32;1.73;;;24.50;47.10;;;;;;5063278;28;20500;-78
2023/05/23 13:32:58;;;;;;;7.85;1.98;;;24.30;39.30;;;;;;5064755;28;20115;-77
2023/05/23 13:35:24;;;;;;;7.85;2.08;;;25.00;41.40;;;;;;5056762;28;20112;-77
2023/05/23 13:37:50;;;;;;;8.10;2.25;;;24.50;37.40;;;;;;5043162;28;20096;-78
2023/05/23 13:40:18;;;;;;;7.63;1.77;;;23.60;38.90;;;;;;5058973;28;20754;-78